• Join FlightAware (Why Join?)
  • Login
  • US Flag 
04:55AM EDT


 

Airport Tracker/Info


-or-


 

Live Flight TrackerFlight Track Log ✈ N143DE ✈ 19-Jan-2014 ✈ KBHM - KRYY

Flight Track Log - Related Links

Times and Time Zones

All times are in EST time to prevent confusion due to time zone crossing. See the N143DE flight status page for this flight to view local times or setup timezone preferences in your user account.

Time Position Orientation Groundspeed Altitude Reporting Facility
EST Latitude Longitude Course Direction KTS MPH feet Rate Location/Type
07:32PM 33.5897 -86.8144 297° West 74 85 11,000  Level Atlanta Center
07:33PM 33.6339 -86.8033 12° North 119 137 11,000 -240 Level Atlanta Center
07:34PM 33.6583 -86.7367 66° East 147 169 10,600 -120 Descending Atlanta Center
07:35PM 33.6789 -86.6550 73° East 190 219 10,800 180 Climbing Atlanta Center
07:36PM 33.7097 -86.5761 65° Northeast 232 267 11,000 60 Climbing Atlanta Center
07:37PM 33.7386 -86.4919 68° East 257 296 11,000  Level Atlanta Center
07:38PM 33.7694 -86.4103 66° East 268 308 11,000  Level Atlanta Center
07:39PM 33.7958 -86.3286 69° East 268 308 11,000  Level Atlanta Center
07:40PM 33.8247 -86.2444 68° East 268 308 11,000  Level Atlanta Center
07:41PM 33.8533 -86.1600 68° East 268 308 11,100 -60 Climbing Atlanta Center
07:42PM 33.8797 -86.0756 69° East 268 308 10,900 -120 Descending Atlanta Center
07:43PM 33.9122 -85.9936 64° Northeast 268 308 10,900  Level Atlanta Center
07:44PM 33.9428 -85.9092 66° East 268 308 10,900  Level Atlanta Center
07:45PM 33.9692 -85.8222 70° East 274 315 10,900  Level Atlanta Center
07:46PM 33.9747 -85.7322 86° East 268 308 10,900  Level Atlanta Center
07:47PM 33.9739 -85.6394 91° East 273 314 10,900  Level Atlanta Center
07:48PM 33.9708 -85.5542 92° East 273 314 10,900  Level Atlanta Center
07:49PM 33.9675 -85.4639 93° East 273 314 10,900 -660 Level Atlanta Center
07:50PM 33.9644 -85.3689 92° East 278 320 9,600 -1,200 Descending Atlanta Center
07:51PM 33.9633 -85.2711 91° East 286 329 8,500 -900 Descending Atlanta Center
07:52PM 33.9622 -85.1808 91° East 280 322 7,900 -360 Descending Atlanta Center
07:53PM 33.9608 -85.1008 91° East 246 283 7,800 -1,020 Descending Atlanta Center
07:54PM 33.9700 -85.0081 83° East 241 277 5,900 -2,040 Descending Atlanta Center
07:55PM 33.9853 -84.9256 77° East 253 291 3,800 -1,560 Descending Atlanta Center
07:56PM 34.0003 -84.8606 74° East 225 259 2,800 -480 Descending Atlanta Center
07:57PM 34.0131 -84.8106 73° East 177 204 2,900 60 Climbing Atlanta Center
07:58PM 34.0156 -84.7506 87° East 164 189 3,000  Climbing Atlanta Center
07:59PM 34.0117 -84.6978 95° East 158 182 3,000  Level Atlanta Center
08:02PM 34.0132 -84.5971 90° East  Level Estimated